Terminal Aerodrome Forecast
Issued by NWS

Home | Current Version | Previous Version | Text Only | Print | Product List | Glossary On
Versions: 1 2 3 4 5 6 7 8 9 10 11 12 13
827
FTUS42 TJSJ 031736
TAFJBQ
TAF
TJBQ 031736Z 0318/0418 03008KT P6SM VCSH SCT025 BKN060
      TEMPO 0318/0322 SHRA BKN020 OVC050
     FM032300 11005KT P6SM FEW025 SCT060
     FM041400 08013KT P6SM FEW025
      AMD NOT SKED 0402/0411=

USA.gov is the U.S. government's official web portal to all federal, state and local government web resources and services.